Terminal Aerodrome Forecast
Issued by NWS Knoxville/Tri Cities, TN

Current Version | Previous Version | Text Only | Print | Product List | Glossary On
Versions: 1 2 3 4 5 6 7 8 9 10 11 12 13 14 15 16 17 18 19 20 21 22 23 24 25 26
000
FTUS44 KMRX 052323
TAFTRI
TAF
KTRI 052323Z 0600/0624 33008KT P6SM -SHRA SCT015 OVC025
     FM060300 27007KT P6SM VCSH SCT012 OVC020
     FM061600 29010KT P6SM BKN050=

USA.gov is the U.S. government's official web portal to all federal, state and local government web resources and services.